createdAt,value
2023-04-16T04:15:31.651Z,4.00
2023-04-16T04:16:31.670Z,4.00
2023-04-16T04:17:31.694Z,4.00
2023-04-16T04:18:31.642Z,8.00
2023-04-16T04:19:31.593Z,8.00
2023-04-16T04:20:31.583Z,12.00
2023-04-16T04:21:31.596Z,12.00
2023-04-16T04:22:31.560Z,16.00
2023-04-16T04:23:31.545Z,16.00
2023-04-16T04:24:31.524Z,16.00
2023-04-16T04:25:31.512Z,20.00
2023-04-16T04:26:31.598Z,24.00
2023-04-16T04:27:31.497Z,28.00
2023-04-16T04:28:31.471Z,32.00
2023-04-16T04:29:31.462Z,32.00
2023-04-16T04:30:31.454Z,36.00
2023-04-16T04:31:31.506Z,36.00
2023-04-16T04:32:31.450Z,36.00
2023-04-16T04:33:31.426Z,40.00
2023-04-16T04:34:31.392Z,48.00
2023-04-16T04:35:31.409Z,48.00
2023-04-16T04:36:31.387Z,56.00
2023-04-16T04:37:31.359Z,56.00
2023-04-16T04:38:31.339Z,56.00
2023-04-16T04:39:31.339Z,68.00
2023-04-16T04:40:31.323Z,72.00
2023-04-16T04:41:31.325Z,76.00
2023-04-16T04:42:31.287Z,84.00
2023-04-16T04:43:31.290Z,88.00
2023-04-16T04:44:31.269Z,88.00
2023-04-16T04:45:32.093Z,92.00
2023-04-16T04:46:31.248Z,112.00
2023-04-16T04:47:31.238Z,116.00
2023-04-16T04:48:31.207Z,128.00
2023-04-16T04:49:31.203Z,120.00
2023-04-16T04:50:31.188Z,124.00
2023-04-16T04:51:31.198Z,132.00
2023-04-16T04:52:31.187Z,140.00
2023-04-16T04:53:31.146Z,140.00
2023-04-16T04:54:31.131Z,156.00
2023-04-16T04:55:31.125Z,192.00
2023-04-16T04:56:31.135Z,208.00
2023-04-16T04:57:31.091Z,216.00
2023-04-16T04:58:31.079Z,228.00
2023-04-16T04:59:31.064Z,228.00
2023-04-16T05:00:31.049Z,240.00
2023-04-16T05:01:31.103Z,236.00
2023-04-16T05:02:31.126Z,244.00
2023-04-16T05:03:31.103Z,256.00
2023-04-16T05:04:31.003Z,256.00
2023-04-16T05:05:30.992Z,252.00
2023-04-16T05:06:30.997Z,240.00
2023-04-16T05:07:30.968Z,252.00
2023-04-16T05:08:30.951Z,268.00
2023-04-16T05:09:30.942Z,272.00
2023-04-16T05:10:30.919Z,264.00
2023-04-16T05:11:30.919Z,268.00
2023-04-16T05:12:30.888Z,280.00
2023-04-16T05:13:30.891Z,276.00
2023-04-16T05:14:30.869Z,280.00
2023-04-16T05:15:30.855Z,288.00
2023-04-16T05:16:30.910Z,284.00
2023-04-16T05:17:37.981Z,268.00
2023-04-16T05:18:30.809Z,272.00
2023-04-16T05:19:30.824Z,268.00
2023-04-16T05:20:30.789Z,296.00
2023-04-16T05:21:30.792Z,280.00
2023-04-16T05:22:30.759Z,360.00
2023-04-16T05:23:30.754Z,348.00
2023-04-16T05:24:30.738Z,328.00
2023-04-16T05:25:30.722Z,296.00
2023-04-16T05:26:30.714Z,288.00
2023-04-16T05:27:30.695Z,280.00
2023-04-16T05:28:30.931Z,284.00
2023-04-16T05:29:30.681Z,284.00
2023-04-16T05:30:30.668Z,308.00
2023-04-16T05:31:30.659Z,340.00
2023-04-16T05:32:30.660Z,376.00
2023-04-16T05:33:30.623Z,424.00
2023-04-16T05:34:30.609Z,416.00
2023-04-16T05:35:30.591Z,428.00
2023-04-16T05:36:30.591Z,432.00
2023-04-16T05:37:30.564Z,440.00
2023-04-16T05:38:30.542Z,444.00
2023-04-16T05:39:30.533Z,488.00
2023-04-16T05:40:30.534Z,456.00
2023-04-16T05:41:30.517Z,464.00
2023-04-16T05:42:30.514Z,448.00
2023-04-16T05:43:30.484Z,436.00
2023-04-16T05:44:30.460Z,468.00
2023-04-16T05:45:30.457Z,448.00
2023-04-16T05:46:30.466Z,476.00
2023-04-16T05:47:30.450Z,476.00
2023-04-16T05:48:30.419Z,492.00
2023-04-16T05:49:30.402Z,508.00
2023-04-16T05:50:30.385Z,476.00
2023-04-16T05:51:30.383Z,512.00
2023-04-16T05:52:30.369Z,504.00
2023-04-16T05:53:30.351Z,508.00
2023-04-16T05:54:30.330Z,512.00
2023-04-16T05:55:30.327Z,488.00
2023-04-16T05:56:30.331Z,468.00
2023-04-16T05:57:30.299Z,536.00
2023-04-16T05:58:30.278Z,532.00
2023-04-16T05:59:30.262Z,580.00
2023-04-16T06:00:30.272Z,568.00
2023-04-16T06:01:30.265Z,572.00
2023-04-16T06:02:30.348Z,564.00
2023-04-16T06:03:30.469Z,532.00
2023-04-16T06:04:30.202Z,540.00
2023-04-16T06:05:30.330Z,636.00
2023-04-16T06:06:30.188Z,632.00
2023-04-16T06:07:30.161Z,620.00
2023-04-16T06:08:30.148Z,680.00
2023-04-16T06:09:30.126Z,692.00
2023-04-16T06:10:30.141Z,740.00
2023-04-16T06:11:30.302Z,796.00
2023-04-16T06:12:30.105Z,792.00
2023-04-16T06:13:30.077Z,780.00
2023-04-16T06:14:30.069Z,776.00
2023-04-16T06:15:30.050Z,748.00
2023-04-16T06:16:30.089Z,812.00
2023-04-16T06:17:30.065Z,856.00
2023-04-16T06:18:30.018Z,884.00
2023-04-16T06:19:30.008Z,872.00
2023-04-16T06:20:30.001Z,824.00
2023-04-16T06:21:29.983Z,824.00
2023-04-16T06:22:29.965Z,952.00
2023-04-16T06:23:29.946Z,976.00
2023-04-16T06:24:29.935Z,1008.00
2023-04-16T06:25:29.916Z,1080.00
2023-04-16T06:26:29.914Z,1184.00
2023-04-16T06:27:29.918Z,1268.00
2023-04-16T06:28:29.880Z,1432.00
2023-04-16T06:29:40.709Z,1608.00
2023-04-16T06:30:30.853Z,1552.00
2023-04-16T06:31:29.921Z,1660.00
2023-04-16T06:32:29.869Z,1848.00
2023-04-16T06:33:29.811Z,2096.00
2023-04-16T06:34:29.811Z,2228.00
2023-04-16T06:35:29.782Z,2340.00
2023-04-16T06:36:29.784Z,2176.00
2023-04-16T06:37:29.756Z,2084.00
2023-04-16T06:38:29.753Z,2100.00
2023-04-16T06:39:29.724Z,2192.00
2023-04-16T06:40:29.731Z,2360.00
2023-04-16T06:41:29.727Z,2552.00
2023-04-16T06:42:29.711Z,2468.00
2023-04-16T06:43:29.687Z,2476.00
2023-04-16T06:44:29.685Z,2572.00
2023-04-16T06:45:29.649Z,2484.00
2023-04-16T06:46:29.694Z,2424.00
2023-04-16T06:47:29.714Z,2556.00
2023-04-16T06:48:29.612Z,2636.00
2023-04-16T06:49:29.600Z,2504.00
2023-04-16T06:50:29.602Z,2484.00
2023-04-16T06:51:29.601Z,2220.00
2023-04-16T06:52:29.557Z,2244.00
2023-04-16T06:53:29.543Z,1924.00
2023-04-16T06:54:29.543Z,1956.00
2023-04-16T06:55:29.518Z,2100.00
2023-04-16T06:56:29.524Z,2116.00
2023-04-16T06:57:29.491Z,2116.00
2023-04-16T06:58:29.496Z,2136.00
2023-04-16T06:59:29.467Z,2136.00
2023-04-16T07:00:29.465Z,2036.00
2023-04-16T07:01:29.539Z,2236.00
2023-04-16T07:02:29.610Z,2072.00
2023-04-16T07:03:29.597Z,2116.00
2023-04-16T07:04:29.439Z,2284.00
2023-04-16T07:05:29.437Z,2368.00
2023-04-16T07:06:29.399Z,2504.00
2023-04-16T07:07:29.361Z,2516.00
2023-04-16T07:08:29.354Z,2624.00
2023-04-16T07:09:29.336Z,2640.00
2023-04-16T07:10:29.348Z,2868.00
2023-04-16T07:11:29.323Z,2616.00
2023-04-16T07:12:29.298Z,2468.00
2023-04-16T07:13:29.293Z,2512.00
2023-04-16T07:14:29.281Z,2628.00
2023-04-16T07:15:29.262Z,2792.00
2023-04-16T07:16:29.330Z,2676.00
2023-04-16T07:17:29.260Z,2804.00
2023-04-16T07:18:29.231Z,2724.00
2023-04-16T07:19:29.209Z,2592.00
2023-04-16T07:20:29.202Z,2408.00
2023-04-16T07:21:29.221Z,2484.00
2023-04-16T07:22:29.179Z,2316.00
2023-04-16T07:23:29.167Z,2268.00
2023-04-16T07:24:29.148Z,2440.00
2023-04-16T07:25:29.126Z,2444.00
2023-04-16T07:26:29.183Z,2240.00
2023-04-16T07:27:29.128Z,2168.00
2023-04-16T07:28:29.105Z,2444.00
2023-04-16T07:29:29.082Z,2416.00
2023-04-16T07:30:29.096Z,2152.00
2023-04-16T07:31:29.124Z,2364.00
2023-04-16T07:32:29.119Z,2368.00
2023-04-16T07:33:29.034Z,2768.00
2023-04-16T07:34:29.019Z,2916.00
2023-04-16T07:35:29.001Z,3396.00
2023-04-16T07:36:29.013Z,3516.00
2023-04-16T07:37:28.975Z,3348.00
2023-04-16T07:38:29.032Z,3372.00
2023-04-16T07:39:28.951Z,3820.00
2023-04-16T07:40:28.943Z,4064.00
2023-04-16T07:41:28.946Z,3868.00
2023-04-16T07:42:28.910Z,3672.00
2023-04-16T07:43:28.897Z,3732.00
2023-04-16T07:44:28.892Z,4432.00
2023-04-16T07:45:28.879Z,5068.00
2023-04-16T07:46:39.387Z,4816.00
2023-04-16T07:47:29.879Z,4388.00
2023-04-16T07:48:28.849Z,4404.00
2023-04-16T07:49:28.828Z,4580.00
2023-04-16T07:50:28.822Z,4344.00
2023-04-16T07:51:28.811Z,4328.00
2023-04-16T07:52:28.791Z,4816.00
2023-04-16T07:53:28.762Z,4832.00
2023-04-16T07:54:29.283Z,4380.00
2023-04-16T07:55:28.745Z,4380.00
2023-04-16T07:56:28.745Z,4100.00
2023-04-16T07:57:28.713Z,4040.00
2023-04-16T07:58:28.709Z,3984.00
2023-04-16T07:59:28.876Z,4040.00
2023-04-16T08:00:28.690Z,4920.00
2023-04-16T08:01:28.668Z,4760.00
2023-04-16T08:02:28.797Z,4508.00
2023-04-16T08:03:28.827Z,4744.00
2023-04-16T08:04:28.846Z,4676.00
2023-04-16T08:05:28.639Z,4100.00
2023-04-16T08:06:28.616Z,4244.00
2023-04-16T08:07:28.587Z,4132.00
2023-04-16T08:08:28.575Z,3552.00
2023-04-16T08:09:28.568Z,3304.00
2023-04-16T08:10:28.552Z,3292.00
2023-04-16T08:11:28.555Z,3620.00
2023-04-16T08:12:28.518Z,3788.00
2023-04-16T08:13:28.503Z,3532.00
2023-04-16T08:14:28.493Z,3400.00
2023-04-16T08:15:28.510Z,3208.00
2023-04-16T08:16:28.499Z,2844.00
2023-04-16T08:17:28.524Z,2704.00
2023-04-16T08:18:28.441Z,2932.00
2023-04-16T08:19:28.429Z,3296.00
2023-04-16T08:20:28.409Z,3780.00
2023-04-16T08:21:28.433Z,3688.00
2023-04-16T08:22:28.383Z,3580.00
2023-04-16T08:23:28.376Z,4108.00
2023-04-16T08:24:28.364Z,4156.00
2023-04-16T08:25:28.356Z,3960.00
2023-04-16T08:26:28.345Z,4236.00
2023-04-16T08:27:28.336Z,4728.00
2023-04-16T08:28:28.313Z,4764.00
2023-04-16T08:29:28.318Z,4372.00
2023-04-16T08:30:28.275Z,4116.00
2023-04-16T08:31:28.318Z,4120.00
2023-04-16T08:32:28.274Z,4724.00
2023-04-16T08:33:28.244Z,4924.00
2023-04-16T08:34:28.217Z,5192.00
2023-04-16T08:35:28.224Z,4600.00
2023-04-16T08:36:28.210Z,4504.00
2023-04-16T08:37:28.197Z,4856.00
2023-04-16T08:38:28.179Z,5204.00
2023-04-16T08:39:28.163Z,5120.00
2023-04-16T08:40:28.144Z,5096.00
2023-04-16T08:41:28.146Z,5588.00
2023-04-16T08:42:28.113Z,5204.00
2023-04-16T08:43:28.105Z,4940.00
2023-04-16T08:44:28.087Z,5280.00
2023-04-16T08:45:28.093Z,5652.00
2023-04-16T08:46:28.130Z,6608.00
2023-04-16T08:47:28.083Z,6184.00
2023-04-16T08:48:28.053Z,5524.00
2023-04-16T08:49:28.024Z,4820.00
2023-04-16T08:50:28.004Z,4116.00
2023-04-16T08:51:28.011Z,3860.00
2023-04-16T08:52:27.985Z,3724.00
2023-04-16T08:53:27.964Z,3548.00
2023-04-16T08:54:27.949Z,3660.00
2023-04-16T08:55:27.944Z,3692.00
2023-04-16T08:56:27.943Z,3580.00
2023-04-16T08:57:27.910Z,3716.00
2023-04-16T08:58:27.891Z,4404.00
2023-04-16T08:59:27.885Z,5840.00
2023-04-16T09:00:27.891Z,6904.00
2023-04-16T09:01:27.912Z,6640.00
2023-04-16T09:02:27.994Z,6676.00
2023-04-16T09:03:27.901Z,6808.00
2023-04-16T09:04:27.900Z,5844.00
2023-04-16T09:05:27.824Z,5168.00
2023-04-16T09:06:27.805Z,5028.00
2023-04-16T09:07:27.779Z,6004.00
2023-04-16T09:08:27.764Z,7508.00
2023-04-16T09:09:27.747Z,8408.00
2023-04-16T09:10:27.732Z,9028.00
2023-04-16T09:11:27.731Z,8748.00
2023-04-16T09:12:27.705Z,7560.00
2023-04-16T09:13:27.699Z,6920.00
2023-04-16T09:14:27.683Z,6908.00
2023-04-16T09:15:27.676Z,7940.00
2023-04-16T09:16:27.677Z,8960.00
2023-04-16T09:17:27.674Z,8956.00
2023-04-16T09:18:27.627Z,9340.00
2023-04-16T09:19:27.626Z,8816.00
2023-04-16T09:20:27.601Z,7996.00
2023-04-16T09:21:27.608Z,8180.00
2023-04-16T09:22:27.575Z,7756.00
2023-04-16T09:23:27.568Z,7980.00
2023-04-16T09:24:27.551Z,8112.00
2023-04-16T09:25:27.543Z,7036.00
2023-04-16T09:26:27.541Z,7112.00
2023-04-16T09:27:27.516Z,7004.00
2023-04-16T09:28:27.493Z,7356.00
2023-04-16T09:29:27.487Z,7640.00
2023-04-16T09:30:27.536Z,7564.00
2023-04-16T09:31:27.541Z,7288.00
2023-04-16T09:32:27.586Z,7588.00
2023-04-16T09:33:27.427Z,7664.00
2023-04-16T09:34:27.421Z,7092.00
2023-04-16T09:35:27.402Z,7660.00
2023-04-16T09:36:27.400Z,8360.00
2023-04-16T09:37:27.370Z,8368.00
2023-04-16T09:38:27.361Z,8568.00
2023-04-16T09:39:27.366Z,9264.00
2023-04-16T09:40:27.443Z,8628.00
2023-04-16T09:41:27.332Z,7556.00
2023-04-16T09:42:27.366Z,7792.00
2023-04-16T09:43:27.295Z,9404.00
2023-04-16T09:44:27.283Z,9776.00
2023-04-16T09:45:27.284Z,9496.00
2023-04-16T09:46:27.283Z,8436.00
2023-04-16T09:47:27.266Z,7764.00
2023-04-16T09:48:27.235Z,6976.00
2023-04-16T09:49:27.215Z,6820.00
2023-04-16T09:50:27.222Z,6688.00
2023-04-16T09:51:27.211Z,6284.00
2023-04-16T09:52:27.167Z,5800.00
2023-04-16T09:53:27.166Z,5716.00
2023-04-16T09:54:27.154Z,5884.00
2023-04-16T09:55:27.160Z,5576.00
2023-04-16T09:56:27.128Z,5800.00
2023-04-16T09:57:27.127Z,6376.00
2023-04-16T09:58:27.097Z,7732.00
2023-04-16T09:59:27.094Z,9072.00
2023-04-16T10:00:27.079Z,10124.00
2023-04-16T10:01:27.091Z,10004.00
2023-04-16T10:02:27.111Z,8964.00
2023-04-16T10:03:27.121Z,8028.00
2023-04-16T10:04:27.048Z,7092.00
2023-04-16T10:05:27.012Z,6588.00
2023-04-16T10:06:26.995Z,7132.00
2023-04-16T10:07:26.976Z,7268.00
2023-04-16T10:08:26.970Z,6828.00
2023-04-16T10:09:26.946Z,6716.00
2023-04-16T10:10:26.960Z,7128.00
2023-04-16T10:11:26.929Z,7700.00
2023-04-16T10:12:26.918Z,7460.00
2023-04-16T10:13:26.902Z,7172.00
2023-04-16T10:14:26.916Z,6724.00
2023-04-16T10:15:26.872Z,6088.00
2023-04-16T10:16:27.003Z,6692.00
2023-04-16T10:17:26.862Z,7116.00
2023-04-16T10:18:26.827Z,6604.00
2023-04-16T10:19:26.819Z,5652.00
2023-04-16T10:20:26.825Z,6264.00
2023-04-16T10:21:26.793Z,6884.00
2023-04-16T10:22:26.780Z,7360.00
2023-04-16T10:23:26.765Z,8004.00
2023-04-16T10:24:26.753Z,7744.00
2023-04-16T10:25:26.747Z,8432.00
2023-04-16T10:26:26.726Z,10892.00
2023-04-16T10:27:26.713Z,11832.00
2023-04-16T10:28:26.702Z,11692.00
2023-04-16T10:29:26.716Z,11728.00
2023-04-16T10:30:26.697Z,11516.00
2023-04-16T10:31:26.702Z,10740.00
2023-04-16T10:32:26.673Z,10088.00
2023-04-16T10:33:26.626Z,9336.00
2023-04-16T10:34:26.633Z,8880.00
2023-04-16T10:35:26.597Z,8272.00
2023-04-16T10:36:26.606Z,7408.00
2023-04-16T10:37:26.585Z,6924.00
2023-04-16T10:38:26.575Z,6500.00
2023-04-16T10:39:26.562Z,6312.00
2023-04-16T10:40:26.658Z,5864.00
2023-04-16T10:41:26.531Z,5328.00
2023-04-16T10:42:26.516Z,4776.00
2023-04-16T10:43:26.493Z,4368.00
2023-04-16T10:44:26.493Z,4068.00
2023-04-16T10:45:26.468Z,4008.00
2023-04-16T10:46:26.605Z,4128.00
2023-04-16T10:47:26.463Z,4616.00
2023-04-16T10:48:30.785Z,4972.00
2023-04-16T10:49:27.435Z,5288.00
2023-04-16T10:50:26.416Z,5896.00
2023-04-16T10:51:26.418Z,6388.00
2023-04-16T10:52:26.386Z,6636.00
2023-04-16T10:53:26.365Z,6452.00
2023-04-16T10:54:26.385Z,6520.00
2023-04-16T10:55:26.336Z,6028.00
2023-04-16T10:56:26.344Z,5520.00
2023-04-16T10:57:26.302Z,5580.00
2023-04-16T10:58:26.302Z,5536.00
2023-04-16T10:59:26.304Z,5560.00
2023-04-16T11:00:26.276Z,6232.00
2023-04-16T11:01:26.273Z,7040.00
2023-04-16T11:02:27.757Z,7360.00
2023-04-16T11:03:26.465Z,7384.00
2023-04-16T11:04:26.313Z,7272.00
2023-04-16T11:05:26.220Z,6864.00
2023-04-16T11:06:26.202Z,6628.00
2023-04-16T11:07:26.173Z,6256.00
2023-04-16T11:08:26.432Z,5824.00
2023-04-16T11:09:26.163Z,5324.00
2023-04-16T11:10:26.162Z,5280.00
2023-04-16T11:11:26.124Z,5968.00
2023-04-16T11:12:26.114Z,6240.00
2023-04-16T11:13:26.101Z,6336.00
2023-04-16T11:14:26.083Z,5732.00
2023-04-16T11:15:26.072Z,5588.00
2023-04-16T11:16:26.182Z,5712.00
2023-04-16T11:18:16.783Z,6444.00
2023-04-16T11:19:16.763Z,5764.00
2023-04-16T11:20:20.155Z,5296.00
2023-04-16T11:21:16.746Z,5052.00
2023-04-16T11:22:16.761Z,5776.00
2023-04-16T11:23:16.715Z,7236.00
2023-04-16T11:24:16.705Z,9180.00
2023-04-16T11:25:16.705Z,9892.00
2023-04-16T11:26:16.681Z,9812.00
2023-04-16T11:27:16.680Z,9652.00
2023-04-16T11:28:16.652Z,9432.00
2023-04-16T11:29:16.635Z,9244.00
2023-04-16T11:30:16.644Z,8668.00
2023-04-16T11:31:16.694Z,8796.00
2023-04-16T11:32:16.597Z,8800.00
2023-04-16T11:33:16.607Z,8184.00
2023-04-16T11:34:16.579Z,7360.00
2023-04-16T11:35:16.577Z,6968.00
2023-04-16T11:36:16.551Z,7544.00
2023-04-16T11:37:16.541Z,7584.00
2023-04-16T11:38:16.528Z,6800.00
2023-04-16T11:39:16.510Z,6440.00
2023-04-16T11:40:16.537Z,6012.00
2023-04-16T11:41:16.503Z,5860.00
2023-04-16T11:42:16.527Z,6004.00
2023-04-16T11:43:16.533Z,6152.00
2023-04-16T11:44:16.447Z,6188.00
2023-04-16T11:45:16.459Z,6528.00
2023-04-16T11:46:26.753Z,6040.00
2023-04-16T11:47:17.468Z,5392.00
2023-04-16T11:48:16.463Z,5400.00
2023-04-16T11:49:16.395Z,5096.00
2023-04-16T11:50:16.423Z,4980.00
2023-04-16T11:51:16.390Z,5340.00
2023-04-16T11:52:16.348Z,7228.00
2023-04-16T11:53:16.331Z,10356.00
2023-04-16T11:54:16.316Z,11256.00
2023-04-16T11:55:16.316Z,9788.00
2023-04-16T11:56:16.296Z,7732.00
2023-04-16T11:57:16.279Z,6752.00
2023-04-16T11:58:16.313Z,6164.00
2023-04-16T11:59:16.255Z,5508.00
2023-04-16T12:00:16.264Z,5380.00
2023-04-16T12:01:16.272Z,5544.00
2023-04-16T12:02:16.240Z,5856.00
2023-04-16T12:03:16.473Z,6232.00
2023-04-16T12:04:16.497Z,6492.00
2023-04-16T12:05:16.259Z,6184.00
2023-04-16T12:06:16.181Z,5616.00
2023-04-16T12:07:16.150Z,5288.00
2023-04-16T12:08:16.168Z,5384.00
2023-04-16T12:09:16.139Z,5248.00
2023-04-16T12:10:16.134Z,5056.00
2023-04-16T12:11:16.099Z,4244.00
2023-04-16T12:12:16.097Z,4328.00
2023-04-16T12:13:16.104Z,4772.00
2023-04-16T12:14:16.066Z,4784.00
2023-04-16T12:15:16.066Z,4736.00
2023-04-16T12:16:16.077Z,5016.00
2023-04-16T12:17:16.029Z,5000.00
2023-04-16T12:18:16.115Z,5008.00
2023-04-16T12:19:16.030Z,4888.00
2023-04-16T12:20:15.985Z,4904.00
2023-04-16T12:21:15.971Z,4908.00
2023-04-16T12:22:15.969Z,5020.00
2023-04-16T12:23:15.945Z,4592.00
2023-04-16T12:24:15.947Z,4304.00
2023-04-16T12:25:15.983Z,4164.00
2023-04-16T12:26:15.969Z,4260.00
2023-04-16T12:27:15.944Z,4348.00
2023-04-16T12:28:15.893Z,4228.00
2023-04-16T12:29:15.921Z,3972.00
2023-04-16T12:30:15.857Z,3872.00
2023-04-16T12:31:15.976Z,3948.00
2023-04-16T12:32:15.850Z,4004.00
2023-04-16T12:33:15.904Z,4128.00
2023-04-16T12:34:15.848Z,4108.00
2023-04-16T12:35:15.820Z,4152.00
2023-04-16T12:36:15.788Z,4072.00
2023-04-16T12:37:15.777Z,3856.00
2023-04-16T12:38:15.777Z,3548.00
2023-04-16T12:39:15.796Z,3324.00
2023-04-16T12:40:15.745Z,3240.00
2023-04-16T12:41:15.716Z,3196.00
2023-04-16T12:42:15.706Z,3280.00
2023-04-16T12:43:15.698Z,3600.00
2023-04-16T12:44:15.679Z,4220.00
2023-04-16T12:45:15.666Z,5148.00
2023-04-16T12:46:15.669Z,5696.00
2023-04-16T12:47:15.636Z,5956.00
2023-04-16T12:48:15.633Z,5796.00
2023-04-16T12:49:15.615Z,5240.00
2023-04-16T12:50:15.619Z,4980.00
2023-04-16T12:51:15.597Z,5012.00
2023-04-16T12:52:15.566Z,5184.00
2023-04-16T12:53:15.560Z,5244.00
2023-04-16T12:54:15.556Z,5336.00
2023-04-16T12:55:15.546Z,5132.00
2023-04-16T12:56:15.514Z,4344.00
2023-04-16T12:57:15.496Z,3880.00
2023-04-16T12:58:15.512Z,3744.00
2023-04-16T12:59:15.481Z,3664.00
2023-04-16T13:00:15.481Z,3344.00
2023-04-16T13:01:15.457Z,3216.00
2023-04-16T13:02:15.505Z,3332.00
2023-04-16T13:03:15.684Z,3692.00
2023-04-16T13:04:15.494Z,4104.00
2023-04-16T13:05:15.410Z,4456.00
2023-04-16T13:06:15.382Z,4952.00
2023-04-16T13:07:15.366Z,5164.00
2023-04-16T13:08:15.370Z,5300.00
2023-04-16T13:09:15.356Z,5384.00
2023-04-16T13:10:15.370Z,5404.00
2023-04-16T13:11:15.323Z,5340.00
2023-04-16T13:12:15.324Z,5356.00
2023-04-16T13:13:15.293Z,5608.00
2023-04-16T13:14:15.283Z,6016.00
2023-04-16T13:15:15.271Z,6224.00
2023-04-16T13:16:15.326Z,6648.00
2023-04-16T13:17:15.241Z,6796.00
2023-04-16T13:18:15.241Z,6968.00
2023-04-16T13:19:15.216Z,6936.00
2023-04-16T13:20:15.229Z,7096.00
2023-04-16T13:21:15.197Z,8368.00
2023-04-16T13:22:15.184Z,9740.00
2023-04-16T13:23:15.162Z,10628.00
2023-04-16T13:24:15.171Z,10304.00
2023-04-16T13:25:15.165Z,10284.00
2023-04-16T13:26:15.129Z,12716.00
2023-04-16T13:27:15.118Z,13364.00
2023-04-16T13:28:15.098Z,14308.00
2023-04-16T13:29:15.086Z,15072.00
2023-04-16T13:30:15.084Z,15488.00
2023-04-16T13:31:15.086Z,13564.00
2023-04-16T13:32:15.059Z,13412.00
2023-04-16T13:33:15.034Z,13604.00
2023-04-16T13:34:15.022Z,13580.00
2023-04-16T13:35:15.016Z,12008.00
2023-04-16T13:36:15.000Z,10652.00
2023-04-16T13:37:14.976Z,9444.00
2023-04-16T13:38:14.978Z,8676.00
2023-04-16T13:39:14.952Z,8748.00
2023-04-16T13:40:14.958Z,8464.00
2023-04-16T13:41:14.923Z,7400.00
2023-04-16T13:42:14.917Z,6656.00
2023-04-16T13:43:14.892Z,6420.00
2023-04-16T13:44:14.890Z,6312.00
2023-04-16T13:45:14.879Z,6236.00
2023-04-16T13:46:14.887Z,6320.00
2023-04-16T13:47:14.839Z,6412.00
2023-04-16T13:48:14.842Z,6524.00
2023-04-16T13:49:14.868Z,6408.00
2023-04-16T13:50:14.815Z,6356.00
2023-04-16T13:51:14.845Z,6224.00
2023-04-16T13:52:14.785Z,6128.00
2023-04-16T13:53:14.764Z,6192.00
2023-04-16T13:54:14.753Z,6228.00
2023-04-16T13:55:14.771Z,6344.00
2023-04-16T13:56:14.736Z,6576.00
2023-04-16T13:57:14.726Z,6976.00
2023-04-16T13:58:14.712Z,7492.00
2023-04-16T13:59:14.699Z,7692.00
2023-04-16T14:00:14.682Z,7856.00
2023-04-16T14:01:14.715Z,8096.00
2023-04-16T14:02:14.709Z,8384.00
2023-04-16T14:03:14.709Z,8456.00
2023-04-16T14:04:14.765Z,10976.00
2023-04-16T14:05:14.612Z,12260.00
2023-04-16T14:06:14.629Z,13496.00
2023-04-16T14:07:14.577Z,12432.00
2023-04-16T14:08:14.580Z,11764.00
2023-04-16T14:09:14.590Z,10840.00
2023-04-16T14:10:14.553Z,10200.00
2023-04-16T14:11:14.540Z,10096.00
2023-04-16T14:12:14.533Z,10416.00
2023-04-16T14:13:14.499Z,9904.00
2023-04-16T14:14:14.503Z,9480.00
2023-04-16T14:15:14.486Z,8336.00
2023-04-16T14:16:14.499Z,8360.00
2023-04-16T14:17:14.446Z,8420.00
2023-04-16T14:18:14.433Z,7748.00
2023-04-16T14:19:14.444Z,6856.00
2023-04-16T14:20:14.425Z,6452.00
2023-04-16T14:21:14.401Z,7224.00
2023-04-16T14:22:14.388Z,9604.00
2023-04-16T14:23:14.374Z,13244.00
2023-04-16T14:24:14.370Z,9860.00
2023-04-16T14:25:14.354Z,9384.00
2023-04-16T14:26:14.463Z,8636.00
2023-04-16T14:27:14.324Z,7696.00
2023-04-16T14:28:15.718Z,6936.00
2023-04-16T14:29:14.312Z,7428.00
2023-04-16T14:30:14.302Z,8408.00
2023-04-16T14:31:14.288Z,8524.00
2023-04-16T14:32:14.370Z,7360.00
2023-04-16T14:33:14.248Z,5788.00
2023-04-16T14:34:14.240Z,4936.00
2023-04-16T14:35:14.244Z,4372.00
2023-04-16T14:36:14.242Z,3732.00
2023-04-16T14:37:14.189Z,3412.00
2023-04-16T14:38:14.213Z,3580.00
2023-04-16T14:39:14.180Z,4152.00
2023-04-16T14:40:14.173Z,4620.00
2023-04-16T14:41:14.130Z,4836.00
2023-04-16T14:42:14.119Z,4524.00
2023-04-16T14:43:14.100Z,4292.00
2023-04-16T14:44:14.104Z,3900.00
2023-04-16T14:45:14.142Z,3488.00
2023-04-16T14:46:14.073Z,3272.00
2023-04-16T14:47:14.053Z,3208.00
2023-04-16T14:48:14.073Z,3456.00
2023-04-16T14:49:14.194Z,3956.00
2023-04-16T14:50:14.051Z,4048.00
2023-04-16T14:51:13.998Z,3872.00
2023-04-16T14:52:13.988Z,3624.00
2023-04-16T14:53:13.986Z,3700.00
2023-04-16T14:54:13.962Z,4000.00
2023-04-16T14:55:13.950Z,4296.00
2023-04-16T14:56:13.945Z,4496.00
2023-04-16T14:57:13.919Z,4568.00
2023-04-16T14:58:13.935Z,4656.00
2023-04-16T14:59:13.898Z,4856.00
2023-04-16T15:00:13.894Z,5152.00
2023-04-16T15:01:13.920Z,5392.00
2023-04-16T15:02:13.935Z,5428.00
2023-04-16T15:03:14.032Z,5364.00
2023-04-16T15:04:13.945Z,5176.00
2023-04-16T15:05:13.831Z,4868.00
2023-04-16T15:06:13.956Z,4412.00
2023-04-16T15:07:13.814Z,4096.00
2023-04-16T15:08:13.798Z,3860.00
2023-04-16T15:09:13.763Z,3728.00
2023-04-16T15:10:13.774Z,3672.00
2023-04-16T15:11:13.746Z,3652.00
2023-04-16T15:12:13.835Z,3856.00
2023-04-16T15:13:13.713Z,3816.00
2023-04-16T15:14:13.732Z,3696.00
2023-04-16T15:15:13.727Z,3472.00
2023-04-16T15:16:13.690Z,3208.00
2023-04-16T15:17:13.661Z,2948.00
2023-04-16T15:18:13.657Z,2772.00
2023-04-16T15:19:13.638Z,2704.00
2023-04-16T15:20:13.651Z,2780.00
2023-04-16T15:21:13.622Z,2916.00
2023-04-16T15:22:13.599Z,3032.00
2023-04-16T15:23:13.588Z,2756.00
2023-04-16T15:24:13.576Z,2452.00
2023-04-16T15:25:13.585Z,2344.00
2023-04-16T15:26:13.561Z,2596.00
2023-04-16T15:27:13.532Z,3080.00
2023-04-16T15:28:13.550Z,3588.00
2023-04-16T15:29:13.510Z,4024.00
2023-04-16T15:30:13.517Z,4200.00
2023-04-16T15:31:13.517Z,4368.00
2023-04-16T15:32:13.473Z,4484.00
2023-04-16T15:33:13.454Z,4532.00
2023-04-16T15:34:13.472Z,4864.00
2023-04-16T15:35:13.450Z,5284.00
2023-04-16T15:36:13.427Z,5476.00
2023-04-16T15:37:13.444Z,5296.00
2023-04-16T15:38:13.402Z,4972.00
2023-04-16T15:39:13.556Z,4548.00
2023-04-16T15:40:13.389Z,4136.00
2023-04-16T15:41:13.361Z,3844.00
2023-04-16T15:42:13.416Z,3576.00
2023-04-16T15:43:13.326Z,3300.00
2023-04-16T15:44:13.324Z,3176.00
2023-04-16T15:45:13.304Z,3340.00
2023-04-16T15:46:13.350Z,3636.00
2023-04-16T15:47:13.285Z,3872.00
2023-04-16T15:48:13.331Z,4056.00
2023-04-16T15:49:13.260Z,4372.00
2023-04-16T15:50:13.273Z,4448.00
2023-04-16T15:51:13.227Z,4448.00
2023-04-16T15:52:13.222Z,4452.00
2023-04-16T15:53:13.206Z,4500.00
2023-04-16T15:54:13.198Z,4628.00
2023-04-16T15:55:13.194Z,4968.00
2023-04-16T15:56:13.170Z,5384.00
2023-04-16T15:57:13.152Z,5624.00
2023-04-16T15:58:13.142Z,5588.00
2023-04-16T15:59:13.216Z,5368.00
2023-04-16T16:00:13.400Z,5336.00
2023-04-16T16:01:13.101Z,5212.00
2023-04-16T16:02:13.135Z,5032.00
2023-04-16T16:03:13.167Z,5028.00
2023-04-16T16:04:13.259Z,4956.00
2023-04-16T16:05:13.072Z,4784.00
2023-04-16T16:06:13.044Z,4564.00
2023-04-16T16:07:13.025Z,4296.00
2023-04-16T16:08:13.037Z,4108.00
2023-04-16T16:09:13.082Z,3984.00
2023-04-16T16:10:13.140Z,3872.00
2023-04-16T16:11:12.965Z,3736.00
2023-04-16T16:12:12.959Z,3616.00
2023-04-16T16:13:12.974Z,3612.00
2023-04-16T16:14:12.963Z,3820.00
2023-04-16T16:15:12.932Z,4100.00
2023-04-16T16:16:12.953Z,4472.00
2023-04-16T16:17:12.906Z,5048.00
2023-04-16T16:18:12.901Z,5708.00
2023-04-16T16:19:12.867Z,5660.00
2023-04-16T16:20:12.914Z,5712.00
2023-04-16T16:21:12.847Z,6000.00
2023-04-16T16:22:12.839Z,6036.00
2023-04-16T16:23:12.818Z,5976.00
2023-04-16T16:24:12.815Z,5908.00
2023-04-16T16:25:12.799Z,5804.00